createdAt,value
2017-12-08T00:02:25.514Z,4.15
2017-12-08T00:04:53.986Z,3.55
2017-12-08T00:07:22.062Z,3.40
2017-12-08T00:09:50.100Z,3.12
2017-12-08T00:12:18.938Z,3.22
2017-12-08T00:14:46.991Z,2.62
2017-12-08T00:17:15.029Z,3.20
2017-12-08T00:19:43.848Z,3.00
2017-12-08T00:22:11.920Z,4.53
2017-12-08T00:24:39.988Z,2.55
2017-12-08T00:27:08.030Z,2.75
2017-12-08T00:29:36.842Z,2.60
2017-12-08T00:32:04.906Z,2.12
2017-12-08T00:34:33.717Z,1.80
2017-12-08T00:37:02.605Z,2.00
2017-12-08T00:39:30.659Z,2.40
2017-12-08T00:41:59.466Z,2.33
2017-12-08T00:44:27.530Z,1.80
2017-12-08T00:46:55.614Z,1.98
2017-12-08T00:49:23.674Z,2.30
2017-12-08T00:51:51.752Z,1.98
2017-12-08T00:54:19.829Z,1.40
2017-12-08T00:56:47.872Z,1.85
2017-12-08T00:59:16.680Z,1.48
2017-12-08T01:01:45.581Z,1.55
2017-12-08T01:04:13.632Z,1.67
2017-12-08T01:06:42.441Z,1.65
2017-12-08T01:09:10.506Z,1.50
2017-12-08T01:11:38.594Z,1.90
2017-12-08T01:14:06.766Z,1.85
2017-12-08T01:16:35.236Z,1.80
2017-12-08T01:19:03.292Z,1.40
2017-12-08T01:21:31.392Z,1.87
2017-12-08T01:23:59.456Z,1.50
2017-12-08T01:26:27.525Z,1.75
2017-12-08T01:28:55.606Z,1.35
2017-12-08T01:31:24.419Z,1.60
2017-12-08T01:33:52.474Z,1.50
2017-12-08T01:36:20.524Z,1.35
2017-12-08T01:38:48.582Z,1.58
2017-12-08T01:41:17.388Z,1.00
2017-12-08T01:43:45.891Z,1.20
2017-12-08T01:46:14.044Z,1.20
2017-12-08T01:48:42.094Z,1.40
2017-12-08T01:51:11.020Z,1.30
2017-12-08T01:53:39.079Z,1.20
2017-12-08T01:56:07.140Z,1.05
2017-12-08T01:58:35.229Z,1.23
2017-12-08T02:01:03.355Z,1.30
2017-12-08T02:03:31.742Z,1.12
2017-12-08T02:06:00.673Z,1.42
2017-12-08T02:08:28.712Z,2.37
2017-12-08T02:10:57.541Z,1.75
2017-12-08T02:13:25.610Z,2.05
2017-12-08T02:38:02.021Z,2.65
2017-12-08T02:40:31.217Z,2.00
2017-12-08T02:42:59.293Z,2.05
2017-12-08T02:45:27.366Z,2.53
2017-12-08T02:47:56.813Z,2.60
2017-12-08T02:50:25.336Z,2.15
2017-12-08T02:52:53.429Z,1.95
2017-12-08T02:55:21.530Z,3.30
2017-12-08T02:57:49.585Z,2.83
2017-12-08T03:00:17.630Z,3.75
2017-12-08T03:02:46.126Z,2.90
2017-12-08T03:05:14.202Z,3.25
2017-12-08T03:07:42.269Z,3.17
2017-12-08T03:10:10.361Z,2.80
2017-12-08T03:12:38.514Z,3.28
2017-12-08T03:15:06.557Z,2.63
2017-12-08T03:17:34.630Z,4.20
2017-12-08T03:20:02.738Z,3.00
2017-12-08T03:22:30.785Z,3.15
2017-12-08T03:24:58.874Z,4.75
2017-12-08T03:27:26.938Z,3.10
2017-12-08T03:29:55.011Z,2.83
2017-12-08T03:32:23.842Z,3.35
2017-12-08T03:34:51.898Z,3.22
2017-12-08T03:37:20.464Z,2.95
2017-12-08T03:39:48.509Z,2.80
2017-12-08T03:42:16.607Z,3.22
2017-12-08T03:44:44.678Z,2.50
2017-12-08T03:47:12.729Z,2.70
2017-12-08T03:49:40.818Z,3.05
2017-12-08T03:52:08.905Z,3.67
2017-12-08T03:54:36.953Z,2.58
2017-12-08T03:57:05.030Z,3.25
2017-12-08T03:59:33.104Z,3.83
2017-12-08T04:02:01.160Z,3.65
2017-12-08T04:04:29.253Z,4.65
2017-12-08T04:06:57.317Z,2.60
2017-12-08T04:09:25.402Z,3.25
2017-12-08T04:11:53.882Z,3.53
2017-12-08T04:14:21.944Z,3.85
2017-12-08T04:16:51.146Z,3.10
2017-12-08T04:19:19.213Z,2.70
2017-12-08T04:21:47.286Z,4.20
2017-12-08T04:24:15.333Z,3.55
2017-12-08T04:26:43.405Z,4.28
2017-12-08T04:29:11.457Z,3.75
2017-12-08T04:31:39.578Z,2.58
2017-12-08T04:34:07.757Z,2.95
2017-12-08T04:36:35.922Z,2.42
2017-12-08T04:39:03.978Z,2.80
2017-12-08T04:41:32.022Z,3.08
2017-12-08T04:44:00.961Z,3.58
2017-12-08T04:46:29.016Z,2.53
2017-12-08T04:48:57.083Z,3.15
2017-12-08T04:51:25.141Z,3.25
2017-12-08T04:53:54.065Z,2.95
2017-12-08T04:56:22.130Z,4.43
2017-12-08T04:58:50.175Z,3.12
2017-12-08T05:01:19.117Z,2.50
2017-12-08T05:03:47.173Z,2.87
2017-12-08T05:06:15.233Z,2.33
2017-12-08T05:08:43.313Z,2.40
2017-12-08T05:11:11.753Z,2.33
2017-12-08T05:13:40.577Z,2.25
2017-12-08T05:16:08.621Z,2.50
2017-12-08T05:18:37.550Z,2.97
2017-12-08T05:21:05.609Z,3.03
2017-12-08T05:23:33.695Z,2.50
2017-12-08T05:26:02.517Z,2.80
2017-12-08T05:28:30.658Z,2.40
2017-12-08T05:30:59.545Z,2.53
2017-12-08T05:33:28.737Z,2.83
2017-12-08T05:35:57.221Z,3.55
2017-12-08T05:38:25.704Z,2.20
2017-12-08T05:40:53.753Z,2.75
2017-12-08T05:43:21.854Z,3.35
2017-12-08T05:45:50.332Z,4.10
2017-12-08T05:48:18.381Z,3.90
2017-12-08T05:50:47.299Z,4.87
2017-12-08T05:53:15.361Z,5.40
2017-12-08T05:55:43.437Z,3.83
2017-12-08T05:58:11.633Z,4.32
2017-12-08T06:00:39.865Z,4.85
2017-12-08T06:03:07.961Z,5.68
2017-12-08T06:05:36.045Z,5.97
2017-12-08T06:08:04.110Z,6.22
2017-12-08T06:10:32.993Z,5.35
2017-12-08T06:13:01.065Z,6.30
2017-12-08T06:15:29.546Z,7.25
2017-12-08T06:17:58.749Z,5.93
2017-12-08T06:20:26.826Z,4.62
2017-12-08T06:22:55.314Z,6.75
2017-12-08T06:25:24.137Z,5.43
2017-12-08T06:27:52.194Z,6.18
2017-12-08T06:30:20.333Z,6.62
2017-12-08T06:37:44.281Z,5.43
2017-12-08T06:40:12.749Z,5.95
2017-12-08T06:42:40.830Z,4.00
2017-12-08T06:45:08.988Z,4.30
2017-12-08T06:47:37.054Z,3.65
2017-12-08T06:50:05.131Z,5.12
2017-12-08T06:52:33.186Z,4.70
2017-12-08T06:55:01.241Z,5.80
2017-12-08T06:57:29.334Z,4.65
2017-12-08T06:59:57.396Z,4.85
2017-12-08T07:02:25.487Z,5.93
2017-12-08T07:04:53.575Z,5.37
2017-12-08T07:07:21.601Z,5.43
2017-12-08T07:09:49.713Z,4.65
2017-12-08T07:12:17.878Z,7.62
2017-12-08T07:14:46.029Z,6.10
2017-12-08T07:17:14.104Z,6.18
2017-12-08T07:19:42.145Z,5.40
2017-12-08T07:22:10.989Z,7.20
2017-12-08T07:24:39.051Z,6.32
2017-12-08T07:27:07.221Z,6.60
2017-12-08T07:29:35.279Z,5.62
2017-12-08T07:32:03.369Z,5.75
2017-12-08T07:34:31.430Z,6.53
2017-12-08T07:36:59.477Z,6.28
2017-12-08T07:39:28.402Z,6.90
2017-12-08T07:41:56.473Z,4.40
2017-12-08T07:44:24.545Z,5.12
2017-12-08T07:46:52.610Z,4.53
2017-12-08T07:49:21.811Z,4.60
2017-12-08T07:51:50.269Z,4.80
2017-12-08T07:54:19.086Z,5.85
2017-12-08T07:56:47.570Z,4.50
2017-12-08T07:59:15.662Z,5.10
2017-12-08T08:01:44.122Z,7.65
2017-12-08T08:04:12.165Z,5.18
2017-12-08T08:06:40.999Z,5.75
2017-12-08T08:09:09.173Z,4.12
2017-12-08T08:11:37.225Z,4.10
2017-12-08T08:14:06.837Z,3.60
2017-12-08T08:16:34.914Z,3.55
2017-12-08T08:19:02.973Z,3.83
2017-12-08T08:21:31.050Z,5.18
2017-12-08T08:23:59.125Z,5.75
2017-12-08T08:26:27.169Z,4.00
2017-12-08T08:28:55.626Z,4.90
2017-12-08T08:31:24.083Z,4.32
2017-12-08T08:33:52.234Z,4.50
2017-12-08T08:36:20.289Z,5.30
2017-12-08T08:38:48.362Z,5.05
2017-12-08T08:41:16.455Z,4.60
2017-12-08T08:43:44.518Z,4.90
2017-12-08T08:46:12.693Z,4.95
2017-12-08T08:48:41.172Z,3.80
2017-12-08T08:51:09.234Z,5.70
2017-12-08T08:53:37.421Z,3.83
2017-12-08T08:56:05.496Z,3.40
2017-12-08T08:58:33.562Z,3.83
2017-12-08T09:01:01.630Z,4.50
2017-12-08T09:03:29.677Z,3.65
2017-12-08T09:05:58.601Z,4.07
2017-12-08T09:08:26.674Z,2.92
2017-12-08T09:10:54.745Z,3.80
2017-12-08T09:13:22.793Z,4.05
2017-12-08T09:15:50.890Z,5.35
2017-12-08T09:18:18.957Z,3.87
2017-12-08T09:20:47.012Z,3.70
2017-12-08T09:23:15.101Z,4.03
2017-12-08T09:25:43.153Z,4.03
2017-12-08T09:28:11.213Z,4.22
2017-12-08T09:30:40.961Z,3.50
2017-12-08T09:33:09.134Z,3.20
2017-12-08T09:35:37.210Z,2.90
2017-12-08T09:38:05.255Z,3.17
2017-12-08T09:40:33.342Z,3.12
2017-12-08T09:43:01.406Z,3.45
2017-12-08T09:45:29.910Z,8.07
2017-12-08T09:47:58.105Z,8.02
2017-12-08T09:50:26.254Z,5.15
2017-12-08T09:52:54.418Z,3.25
2017-12-08T09:55:23.318Z,2.72
2017-12-08T09:57:51.384Z,2.75
2017-12-08T10:00:19.429Z,2.83
2017-12-08T10:02:47.882Z,2.45
2017-12-08T10:05:17.449Z,2.42
2017-12-08T10:07:45.522Z,3.00
2017-12-08T10:10:13.582Z,2.35
2017-12-08T10:12:41.657Z,2.28
2017-12-08T10:15:09.729Z,2.33
2017-12-08T10:17:38.942Z,3.30
2017-12-08T10:20:07.397Z,2.50
2017-12-08T10:22:35.469Z,2.55
2017-12-08T10:25:03.522Z,2.35
2017-12-08T10:27:32.329Z,2.00
2017-12-08T10:30:00.382Z,1.85
2017-12-08T10:32:29.193Z,1.83
2017-12-08T10:34:57.265Z,1.90
2017-12-08T10:37:25.338Z,2.90
2017-12-08T10:39:53.421Z,2.15
2017-12-08T10:42:21.465Z,2.92
2017-12-08T10:44:50.391Z,2.33
2017-12-08T10:47:18.453Z,2.58
2017-12-08T10:49:46.517Z,2.00
2017-12-08T10:52:14.596Z,2.50
2017-12-08T10:54:42.708Z,2.30
2017-12-08T10:57:10.722Z,2.15
2017-12-08T10:59:38.813Z,2.55
2017-12-08T11:02:06.877Z,1.80
2017-12-08T11:04:35.820Z,2.65
2017-12-08T11:07:04.562Z,3.08
2017-12-08T11:09:32.637Z,1.80
2017-12-08T11:12:00.813Z,2.95
2017-12-08T11:14:28.890Z,1.87
2017-12-08T11:16:56.955Z,1.65
2017-12-08T11:19:25.017Z,1.90
2017-12-08T11:21:53.065Z,1.70
2017-12-08T11:24:22.258Z,1.80
2017-12-08T11:26:51.071Z,1.98
2017-12-08T11:29:19.157Z,2.28
2017-12-08T11:31:48.053Z,1.80
2017-12-08T12:01:21.429Z,1.80
2017-12-08T12:03:49.503Z,1.83
2017-12-08T12:50:35.841Z,1.08
2017-12-08T12:53:03.886Z,1.25
2017-12-08T12:55:32.065Z,1.10
2017-12-08T12:58:00.530Z,2.00
2017-12-08T13:00:28.609Z,1.10
2017-12-08T13:02:56.662Z,1.53
2017-12-08T13:05:24.717Z,1.70
2017-12-08T13:07:53.534Z,1.85
2017-12-08T13:10:21.643Z,1.33
2017-12-08T13:12:49.641Z,1.60
2017-12-08T13:15:18.474Z,1.35
2017-12-08T13:17:46.534Z,2.05
2017-12-08T13:20:14.615Z,1.30
2017-12-08T13:22:43.401Z,1.00
2017-12-08T13:25:11.473Z,1.30
2017-12-08T13:27:39.529Z,1.05
2017-12-08T13:30:07.577Z,1.27
2017-12-08T13:32:36.423Z,0.93
2017-12-08T13:35:04.477Z,0.95
2017-12-08T13:37:33.286Z,1.20
2017-12-08T13:40:01.361Z,1.12
2017-12-08T13:42:29.513Z,1.33
2017-12-08T13:44:57.560Z,0.82
2017-12-08T13:47:25.624Z,1.00
2017-12-08T13:49:54.447Z,1.05
2017-12-08T13:52:22.617Z,1.70
2017-12-08T13:55:02.609Z,1.15
2017-12-08T13:57:30.741Z,1.05
2017-12-08T13:59:58.785Z,1.17
2017-12-08T14:02:27.711Z,1.30
2017-12-08T14:04:56.901Z,1.10
2017-12-08T14:07:25.072Z,1.85
2017-12-08T14:09:53.122Z,1.50
2017-12-08T14:12:21.933Z,1.83
2017-12-08T14:14:50.018Z,1.55
2017-12-08T14:17:18.073Z,1.12
2017-12-08T14:19:46.125Z,1.70
2017-12-08T14:22:15.057Z,1.67
2017-12-08T14:24:43.111Z,1.25
2017-12-08T14:27:11.154Z,1.70
2017-12-08T14:29:39.990Z,1.10
2017-12-08T14:32:08.149Z,1.25
2017-12-08T14:34:36.205Z,1.57
2017-12-08T14:41:59.825Z,0.88
2017-12-08T14:44:27.894Z,1.60
2017-12-08T14:46:57.093Z,0.95
2017-12-08T14:49:25.161Z,1.23
2017-12-08T14:51:53.237Z,1.15
2017-12-08T14:54:21.309Z,2.22
2017-12-08T14:56:49.369Z,1.30
2017-12-08T14:59:17.417Z,1.45
2017-12-08T15:01:46.243Z,1.00
2017-12-08T15:04:14.290Z,1.33
2017-12-08T15:06:43.205Z,1.10
2017-12-08T15:09:11.266Z,1.10
2017-12-08T15:11:39.349Z,0.77
2017-12-08T15:14:07.416Z,0.93
2017-12-08T15:16:35.501Z,0.93
2017-12-08T15:19:03.561Z,1.35
2017-12-08T15:21:31.620Z,1.67
2017-12-08T15:24:00.427Z,1.55
2017-12-08T15:26:28.485Z,1.80
2017-12-08T15:28:56.565Z,1.65
2017-12-08T15:31:25.457Z,1.70
2017-12-08T15:33:53.554Z,1.20
2017-12-08T15:36:22.421Z,1.20
2017-12-08T15:38:50.494Z,1.40
2017-12-08T15:41:18.561Z,1.20
2017-12-08T15:43:46.655Z,1.65
2017-12-08T15:46:15.445Z,1.27
2017-12-08T15:48:43.493Z,1.83
2017-12-08T15:51:11.979Z,1.30
2017-12-08T15:53:40.047Z,1.55
2017-12-08T15:56:08.089Z,2.08
2017-12-08T15:58:37.015Z,1.65
2017-12-08T16:01:05.085Z,1.27
2017-12-08T16:03:33.133Z,1.23
2017-12-08T16:06:01.953Z,1.80
2017-12-08T16:08:30.769Z,1.50
2017-12-08T16:10:58.947Z,1.73
2017-12-08T16:13:26.989Z,1.42
2017-12-08T16:15:55.034Z,1.42
2017-12-08T16:18:23.117Z,1.37
2017-12-08T16:20:51.917Z,1.87
2017-12-08T16:23:19.974Z,1.60
2017-12-08T16:25:48.062Z,1.23
2017-12-08T16:28:16.130Z,1.45
2017-12-08T16:30:44.201Z,1.55
2017-12-08T16:33:12.282Z,1.55
2017-12-08T16:35:40.469Z,1.58
2017-12-08T16:38:08.621Z,1.77
2017-12-08T16:40:36.694Z,1.62
2017-12-08T16:43:04.765Z,1.55
2017-12-08T16:45:32.825Z,1.48
2017-12-08T16:48:00.906Z,1.75
2017-12-08T16:50:28.962Z,1.30
2017-12-08T16:52:57.153Z,2.58
2017-12-08T16:55:25.197Z,2.17
2017-12-08T16:57:54.043Z,1.50
2017-12-08T17:00:22.097Z,1.70
2017-12-08T17:02:50.261Z,2.95
2017-12-08T17:05:18.306Z,3.72
2017-12-08T17:07:47.221Z,2.12
2017-12-08T17:10:15.314Z,2.00
2017-12-08T17:12:43.362Z,2.10
2017-12-08T17:15:11.441Z,2.60
2017-12-08T17:17:40.234Z,2.10
2017-12-08T17:20:08.282Z,3.30
2017-12-08T17:22:36.729Z,2.70
2017-12-08T17:25:04.853Z,2.17
2017-12-08T17:27:32.936Z,2.50
2017-12-08T17:30:00.982Z,2.35
2017-12-08T17:32:29.030Z,2.70
2017-12-08T17:34:57.853Z,2.80
2017-12-08T17:37:25.901Z,3.00
2017-12-08T17:39:54.832Z,2.75
2017-12-08T17:42:22.874Z,3.58
2017-12-08T17:44:50.921Z,3.05
2017-12-08T17:47:19.052Z,3.28
2017-12-08T17:49:47.869Z,4.22
2017-12-08T17:52:15.997Z,2.40
2017-12-08T17:54:44.079Z,2.60
2017-12-08T17:57:12.125Z,3.12
2017-12-08T17:59:41.036Z,2.50
2017-12-08T18:02:09.101Z,2.08
2017-12-08T18:04:37.145Z,2.67
2017-12-08T18:07:05.967Z,2.65
2017-12-08T18:09:34.041Z,3.75
2017-12-08T18:12:02.097Z,2.97
2017-12-08T18:14:30.167Z,3.08
2017-12-08T18:16:58.254Z,2.70
2017-12-08T18:19:26.331Z,3.83
2017-12-08T18:21:54.402Z,2.53
2017-12-08T18:24:22.485Z,2.53
2017-12-08T18:26:50.528Z,2.20
2017-12-08T18:29:19.438Z,2.20
2017-12-08T18:31:47.501Z,2.25
2017-12-08T18:34:15.545Z,2.00
2017-12-08T18:36:44.368Z,2.17
2017-12-08T18:39:12.446Z,2.40
2017-12-08T18:41:40.513Z,2.47
2017-12-08T18:44:08.594Z,2.00
2017-12-08T18:46:36.649Z,2.70
2017-12-08T18:49:04.721Z,3.30
2017-12-08T18:51:32.798Z,2.72
2017-12-08T18:54:00.857Z,2.33
2017-12-08T18:56:28.914Z,2.67
2017-12-08T18:58:57.834Z,3.25
2017-12-08T19:01:26.010Z,3.10
2017-12-08T19:03:54.054Z,2.67
2017-12-08T19:06:22.101Z,2.55
2017-12-08T19:08:50.629Z,2.83
2017-12-08T19:11:19.106Z,1.95
2017-12-08T19:13:48.012Z,2.67
2017-12-08T19:16:16.085Z,2.55
2017-12-08T19:18:44.150Z,2.78
2017-12-08T19:21:12.193Z,2.60
2017-12-08T19:23:41.110Z,2.90
2017-12-08T19:26:09.206Z,2.25
2017-12-08T19:28:37.357Z,3.05
2017-12-08T19:31:05.426Z,2.58
2017-12-08T19:33:33.485Z,2.70
2017-12-08T19:36:01.546Z,3.70
2017-12-08T19:38:30.458Z,2.25
2017-12-08T19:40:58.502Z,2.03
2017-12-08T19:43:27.316Z,1.60
2017-12-08T19:45:55.784Z,2.25
2017-12-08T19:48:24.693Z,2.60
2017-12-08T19:50:52.770Z,3.05
2017-12-08T19:53:20.837Z,2.17
2017-12-08T19:55:48.905Z,2.30
2017-12-08T19:58:17.081Z,2.53
2017-12-08T20:00:45.160Z,2.50
2017-12-08T20:03:13.213Z,2.28
2017-12-08T20:05:41.257Z,1.60
2017-12-08T20:08:10.190Z,1.95
2017-12-08T20:10:38.230Z,1.50
2017-12-08T20:13:07.151Z,1.80
2017-12-08T20:15:35.644Z,2.08
2017-12-08T20:18:03.724Z,1.40
2017-12-08T20:20:31.906Z,1.42
2017-12-08T20:22:59.956Z,1.20
2017-12-08T20:25:28.026Z,2.00
2017-12-08T20:27:56.101Z,2.40
2017-12-08T20:30:24.188Z,2.65
2017-12-08T20:32:53.951Z,3.50
2017-12-08T20:35:22.878Z,2.70
2017-12-08T20:37:50.924Z,4.10
2017-12-08T20:40:19.026Z,3.45
2017-12-08T20:42:47.905Z,3.35
2017-12-08T20:45:15.978Z,3.50
2017-12-08T20:47:44.050Z,3.25
2017-12-08T20:50:12.240Z,4.07
2017-12-08T20:52:40.309Z,3.87
2017-12-08T20:55:08.493Z,2.70
2017-12-08T20:57:36.645Z,2.50
2017-12-08T21:00:04.718Z,3.00
2017-12-08T21:02:32.791Z,2.97
2017-12-08T21:05:00.842Z,3.20
2017-12-08T21:07:29.662Z,3.87
2017-12-08T21:09:57.726Z,2.75
2017-12-08T21:12:25.782Z,3.65
2017-12-08T21:14:53.839Z,3.65
2017-12-08T21:17:22.862Z,3.85
2017-12-08T21:19:50.929Z,4.72
2017-12-08T21:22:19.005Z,4.90
2017-12-08T21:24:47.062Z,4.43
2017-12-08T21:27:15.547Z,3.10
2017-12-08T21:29:43.625Z,3.78
2017-12-08T21:32:11.828Z,3.70
2017-12-08T21:34:39.857Z,4.50
2017-12-08T21:37:08.762Z,3.47
2017-12-08T21:39:38.074Z,3.40
2017-12-08T21:42:06.161Z,3.50
2017-12-08T21:44:34.315Z,3.40
2017-12-08T21:47:02.358Z,3.75
2017-12-08T21:49:31.187Z,4.60
2017-12-08T21:51:59.229Z,4.32
2017-12-08T21:54:27.279Z,4.55
2017-12-08T21:56:56.210Z,4.35
2017-12-08T21:59:24.273Z,4.45
2017-12-08T22:01:52.321Z,3.95
2017-12-08T22:04:21.172Z,4.40
2017-12-08T22:06:49.217Z,4.12
2017-12-08T22:09:17.281Z,4.93
2017-12-08T22:11:45.338Z,4.60
2017-12-08T22:14:13.833Z,4.30
2017-12-08T22:16:41.881Z,4.37
2017-12-08T22:19:10.802Z,5.28
2017-12-08T22:21:38.850Z,4.10
2017-12-08T22:24:06.970Z,3.65
2017-12-08T22:26:35.018Z,3.83
2017-12-08T22:29:03.061Z,3.70
2017-12-08T22:31:31.884Z,3.53
2017-12-08T22:34:00.062Z,3.85
2017-12-08T22:36:28.130Z,3.10
2017-12-08T22:38:56.189Z,4.20
2017-12-08T22:41:25.091Z,3.60
2017-12-08T22:43:53.153Z,3.42
2017-12-08T22:46:21.205Z,4.70
2017-12-08T22:48:49.265Z,3.12
2017-12-08T22:51:18.086Z,3.35
2017-12-08T22:53:47.510Z,3.75
2017-12-08T22:56:15.873Z,3.67
2017-12-08T22:58:43.922Z,3.90
2017-12-08T23:01:11.981Z,3.28
2017-12-08T23:03:40.905Z,3.30
2017-12-08T23:06:08.958Z,3.50
2017-12-08T23:08:37.054Z,3.22
2017-12-08T23:11:05.126Z,3.80
2017-12-08T23:13:33.178Z,3.50
2017-12-08T23:16:01.267Z,4.03
2017-12-08T23:18:30.461Z,3.00
2017-12-08T23:20:58.526Z,3.30
2017-12-08T23:23:26.602Z,3.90
2017-12-08T23:25:54.653Z,3.60
2017-12-08T23:28:23.582Z,3.67
2017-12-08T23:30:51.741Z,3.28
2017-12-08T23:33:20.197Z,2.95
2017-12-08T23:35:48.301Z,2.75
2017-12-08T23:38:16.346Z,3.30
2017-12-08T23:40:44.401Z,3.50
2017-12-08T23:43:13.230Z,4.10
2017-12-08T23:45:41.306Z,4.25
2017-12-08T23:48:10.509Z,3.65
2017-12-08T23:50:38.546Z,3.05
2017-12-08T23:53:07.384Z,4.05
2017-12-08T23:55:35.464Z,3.92
2017-12-08T23:58:03.508Z,3.35
